Time;durP1;ratioP1;P1;durP2;ratioP2;P2;SDS_P1;SDS_P2;PMS_P1;PMS_P2;Temp;Humidity;BMP_temperature;BMP_pressure;BME280_temperature;BME280_humidity;BME280_pressure;Samples;Min_cycle;Max_cycle;Signal;HPM_P1;HPM_P2
2022/08/16 00:00:43;;;;;;;6.13;4.57;;;;;;;21.43;88.64;100483.53;5246265;28;20064;-68
2022/08/16 00:03:22;;;;;;;6.03;4.68;;;;;;;21.32;89.49;100486.81;5245852;28;20507;-68
2022/08/16 00:05:53;;;;;;;5.32;4.80;;;;;;;21.32;89.49;100476.16;5250226;28;20104;-69
2022/08/16 00:08:30;;;;;;;5.90;5.03;;;;;;;21.30;89.88;100483.56;5247188;28;20395;-69
2022/08/16 00:11:05;;;;;;;9.75;5.10;;;;;;;21.18;90.84;100482.56;5250630;28;20396;-69
2022/08/16 00:13:47;;;;;;;7.75;5.38;;;;;;;21.09;92.79;100484.63;5251652;28;20013;-68
2022/08/16 00:16:21;;;;;;;8.88;5.75;;;;;;;21.09;91.56;100479.28;5252370;28;20082;-68
2022/08/16 00:18:53;;;;;;;6.47;5.50;;;;;;;21.05;91.76;100480.72;5248440;28;20032;-69
2022/08/16 00:21:25;;;;;;;6.83;6.13;;;;;;;21.04;91.48;100481.75;5249530;28;20021;-68
2022/08/16 00:23:57;;;;;;;7.47;5.63;;;;;;;21.04;91.54;100487.09;5229543;28;20041;-68
2022/08/16 00:26:32;;;;;;;6.40;5.70;;;;;;;21.05;91.49;100492.19;5250900;28;20404;-68
2022/08/16 00:29:12;;;;;;;9.77;6.65;;;;;;;21.11;90.90;100487.91;5249424;28;20463;-68
2022/08/16 00:31:49;;;;;;;9.77;6.13;;;;;;;21.01;92.76;100498.16;5250830;28;20032;-68
2022/08/16 00:34:22;;;;;;;7.25;6.22;;;;;;;20.98;92.88;100499.38;5232789;28;20013;-69
2022/08/16 00:36:59;;;;;;;;;;;;;;;21.72;84.76;100497.38;5249566;28;20064;-68
2022/08/16 00:39:30;;;;;;;8.15;6.10;;;;;;;21.04;92.98;100503.88;5242960;28;19955;-68
2022/08/16 00:42:14;;;;;;;7.63;5.97;;;;;;;21.20;91.89;100502.63;5248089;28;20473;-68
2022/08/16 00:44:55;;;;;;;7.38;6.32;;;;;;;21.09;93.83;100500.59;5249345;28;20040;-68
2022/08/16 00:47:26;;;;;;;7.80;6.68;;;;;;;20.99;93.83;100500.22;5251700;28;20025;-68
2022/08/16 00:50:05;;;;;;;7.67;6.87;;;;;;;20.99;94.23;100501.03;5250219;28;20361;-68
2022/08/16 00:52:44;;;;;;;10.27;7.25;;;;;;;20.97;95.74;100503.06;5251252;28;20029;-69
2022/08/16 00:55:21;;;;;;;8.82;7.68;;;;;;;20.94;96.14;100508.81;5246969;28;20060;-68
2022/08/16 00:58:05;;;;;;;12.80;7.90;;;;;;;21.09;95.93;100512.06;5248671;28;20025;-69
2022/08/16 01:00:43;;;;;;;8.27;7.32;;;;;;;20.94;97.50;100503.47;5249563;28;20020;-68
2022/08/16 01:03:22;;;;;;;11.88;8.10;;;;;;;20.99;97.20;100506.38;5240189;28;20025;-68
2022/08/16 01:06:04;;;;;;;14.32;8.38;;;;;;;20.88;99.10;100501.66;5247916;28;20087;-68
2022/08/16 01:08:39;;;;;;;14.27;8.30;;;;;;;20.83;99.15;100504.91;5249690;28;20116;-68
2022/08/16 01:11:13;;;;;;;15.57;9.15;;;;;;;20.83;99.79;100517.41;5231916;28;20036;-68
2022/08/16 01:13:47;;;;;;;11.15;8.85;;;;;;;20.83;99.58;100517.41;5249838;28;20025;-68
2022/08/16 01:16:23;;;;;;;12.68;8.50;;;;;;;20.88;100.00;100509.66;5252574;28;20112;-68
2022/08/16 01:19:18;;;;;;;9.68;8.10;;;;;;;21.04;100.00;100505.75;5246794;28;20060;-68
2022/08/16 01:21:58;;;;;;;11.07;8.35;;;;;;;20.86;100.00;100504.50;5249191;28;20021;-68
2022/08/16 01:24:43;;;;;;;10.35;8.38;;;;;;;20.89;100.00;100501.44;5247232;28;20043;-68
2022/08/16 01:27:20;;;;;;;9.98;9.02;;;;;;;20.80;100.00;100512.53;5248930;28;20029;-68
2022/08/16 01:30:10;;;;;;;10.57;8.82;;;;;;;20.88;100.00;100507.00;5247837;28;20025;-68
2022/08/16 01:32:42;;;;;;;12.82;8.75;;;;;;;20.69;100.00;100510.47;5250038;28;20086;-68
2022/08/16 01:35:28;;;;;;;12.37;9.13;;;;;;;20.81;100.00;100501.66;5228605;28;20029;-68
2022/08/16 01:38:17;;;;;;;10.75;8.55;;;;;;;20.84;100.00;100497.78;5231292;28;20028;-68
2022/08/16 01:40:54;;;;;;;14.32;9.57;;;;;;;20.62;100.00;100508.63;5249448;28;20040;-68
2022/08/16 01:43:30;;;;;;;10.82;9.27;;;;;;;20.62;100.00;100507.81;5247066;28;20032;-68
2022/08/16 01:46:07;;;;;;;9.90;8.90;;;;;;;20.57;100.00;100511.09;5245124;28;20033;-68
2022/08/16 01:48:41;;;;;;;11.15;9.20;;;;;;;20.58;100.00;100514.56;5250398;28;20033;-68
2022/08/16 01:51:20;;;;;;;10.35;9.18;;;;;;;20.40;100.00;100510.59;5247017;28;20013;-67
2022/08/16 01:53:52;;;;;;;12.95;10.55;;;;;;;20.30;100.00;100504.84;5250057;28;20476;-68
2022/08/16 01:56:29;;;;;;;10.65;9.65;;;;;;;20.32;100.00;100502.81;5249380;28;20120;-68
2022/08/16 01:59:04;;;;;;;10.82;9.02;;;;;;;20.29;100.00;100505.88;5247792;28;20024;-68
2022/08/16 02:01:38;;;;;;;11.13;10.00;;;;;;;20.23;100.00;100521.81;5248191;28;20433;-68
2022/08/16 02:04:12;;;;;;;11.90;10.23;;;;;;;20.25;100.00;100509.16;5248726;28;20632;-67
2022/08/16 02:06:44;;;;;;;11.68;10.52;;;;;;;20.17;100.00;100512.81;5247927;28;20024;-68
2022/08/16 02:09:18;;;;;;;11.30;9.93;;;;;;;20.12;100.00;100510.78;5249849;28;20045;-68
2022/08/16 02:11:54;;;;;;;12.38;11.15;;;;;;;20.17;100.00;100513.63;5233202;28;20032;-68
2022/08/16 02:14:30;;;;;;;13.52;11.10;;;;;;;20.11;100.00;100510.94;5249112;28;20040;-68
2022/08/16 02:17:05;;;;;;;11.00;10.02;;;;;;;20.06;100.00;100510.75;5248031;28;20029;-68
2022/08/16 02:19:42;;;;;;;12.40;11.30;;;;;;;19.97;100.00;100511.97;5247887;28;20099;-68
2022/08/16 02:22:22;;;;;;;12.20;10.93;;;;;;;20.00;100.00;100514.19;5247951;28;20061;-68
2022/08/16 02:24:56;;;;;;;13.55;10.85;;;;;;;19.85;100.00;100503.72;5249387;28;20090;-68
2022/08/16 02:27:30;;;;;;;14.85;11.85;;;;;;;19.82;100.00;100507.59;5228062;28;20052;-69
2022/08/16 02:30:12;;;;;;;14.13;12.70;;;;;;;19.87;100.00;100514.97;5250180;28;20386;-68
2022/08/16 02:32:51;;;;;;;13.07;11.75;;;;;;;19.88;100.00;100509.44;5247407;28;20464;-68
2022/08/16 02:35:24;;;;;;;12.82;11.52;;;;;;;19.71;100.00;100504.69;5249192;28;20055;-68
2022/08/16 02:38:08;;;;;;;12.70;11.50;;;;;;;19.81;100.00;100507.78;5245303;28;20503;-68
2022/08/16 02:40:39;;;;;;;14.75;12.40;;;;;;;19.66;100.00;100500.81;5243798;28;20059;-69
2022/08/16 02:43:11;;;;;;;13.17;11.80;;;;;;;19.69;100.00;100500.38;5244467;28;20488;-68
2022/08/16 02:45:43;;;;;;;14.53;11.67;;;;;;;19.67;100.00;100501.63;5248822;28;20040;-68
2022/08/16 02:48:20;;;;;;;13.73;12.33;;;;;;;19.62;100.00;100498.72;5246234;28;20276;-68
2022/08/16 02:50:51;;;;;;;12.88;11.48;;;;;;;19.56;100.00;100500.31;5246930;28;20097;-68
2022/08/16 02:53:33;;;;;;;13.03;11.80;;;;;;;19.63;100.00;100501.19;5244335;28;20090;-68
2022/08/16 02:56:05;;;;;;;12.50;11.30;;;;;;;19.59;100.00;100496.44;5247437;28;20314;-67
2022/08/16 02:58:37;;;;;;;14.23;12.73;;;;;;;19.57;100.00;100501.13;5248265;28;20035;-67
2022/08/16 03:01:15;;;;;;;13.70;12.40;;;;;;;19.55;100.00;100493.34;5248291;28;20029;-68
2022/08/16 03:03:50;;;;;;;13.65;12.18;;;;;;;19.49;100.00;100490.66;5246191;28;20055;-67
2022/08/16 03:06:22;;;;;;;14.68;11.68;;;;;;;19.47;100.00;100488.19;5248830;28;20527;-68
2022/08/16 03:08:56;;;;;;;13.83;12.60;;;;;;;19.51;100.00;100492.13;5247415;28;20640;-68
2022/08/16 03:11:28;;;;;;;14.13;12.68;;;;;;;19.50;100.00;100485.13;5246656;28;20033;-68
2022/08/16 03:14:02;;;;;;;14.67;12.00;;;;;;;19.55;100.00;100489.88;5245724;28;20561;-68
2022/08/16 03:16:34;;;;;;;14.10;11.88;;;;;;;19.49;100.00;100485.34;5246373;28;20628;-68
2022/08/16 03:19:09;;;;;;;13.63;12.30;;;;;;;19.48;100.00;100481.88;5225703;28;20033;-68
2022/08/16 03:21:41;;;;;;;11.65;10.55;;;;;;;19.49;100.00;100493.31;5228435;28;20021;-68
2022/08/16 03:24:18;;;;;;;12.60;11.40;;;;;;;19.49;100.00;100488.81;5248505;28;20040;-68
2022/08/16 03:26:52;;;;;;;12.20;10.90;;;;;;;19.43;100.00;100490.44;5248141;28;20037;-68
2022/08/16 03:29:26;;;;;;;13.60;12.27;;;;;;;19.32;100.00;100485.69;5243418;28;20480;-68
2022/08/16 03:32:01;;;;;;;13.38;12.07;;;;;;;19.40;100.00;100485.53;5247386;28;20029;-68
2022/08/16 03:34:39;;;;;;;18.05;13.02;;;;;;;19.43;100.00;100492.25;5243907;28;20035;-68
2022/08/16 03:37:11;;;;;;;13.18;11.82;;;;;;;19.31;100.00;100494.66;5247975;28;20068;-68
2022/08/16 03:39:43;;;;;;;13.82;11.85;;;;;;;19.36;100.00;100500.22;5250676;28;20119;-69
2022/08/16 03:42:22;;;;;;;13.17;11.90;;;;;;;19.43;100.00;100500.22;5248556;28;20025;-68
2022/08/16 03:44:54;;;;;;;13.15;11.85;;;;;;;19.26;100.00;100505.03;5250310;28;20421;-67
2022/08/16 03:47:28;;;;;;;13.60;12.30;;;;;;;19.32;100.00;100509.59;5250355;28;20107;-68
2022/08/16 03:50:06;;;;;;;14.73;13.32;;;;;;;19.13;100.00;100500.47;5249622;28;20082;-68
2022/08/16 03:52:41;;;;;;;14.27;12.70;;;;;;;19.18;100.00;100506.03;5248784;28;20034;-68
2022/08/16 03:55:15;;;;;;;13.52;12.15;;;;;;;19.19;100.00;100517.47;5248618;28;20079;-68
2022/08/16 03:57:48;;;;;;;14.60;12.90;;;;;;;19.14;100.00;100518.06;5230127;28;20047;-67
2022/08/16 04:00:25;;;;;;;14.50;13.02;;;;;;;19.21;100.00;100515.44;5253583;28;20017;-68
2022/08/16 04:03:05;;;;;;;15.98;14.43;;;;;;;19.20;100.00;100522.56;5253259;28;20041;-67
2022/08/16 04:05:44;;;;;;;14.70;13.20;;;;;;;19.16;100.00;100523.97;5249680;28;20029;-67
2022/08/16 04:08:20;;;;;;;15.23;13.60;;;;;;;19.16;100.00;100520.50;5254971;28;20025;-68
2022/08/16 04:10:59;;;;;;;15.15;13.75;;;;;;;19.25;100.00;100526.50;5232894;28;20392;-67
2022/08/16 04:13:31;;;;;;;14.80;13.20;;;;;;;19.13;100.00;100521.72;5247623;28;20025;-67
2022/08/16 04:16:08;;;;;;;14.93;13.23;;;;;;;19.17;100.00;100519.50;5250755;28;20040;-68
2022/08/16 04:18:41;;;;;;;14.27;12.98;;;;;;;19.09;100.00;100530.25;5248295;28;20047;-68
2022/08/16 04:21:13;;;;;;;16.08;14.45;;;;;;;19.05;100.00;100527.16;5251713;28;20414;-67
2022/08/16 04:23:46;;;;;;;15.23;13.73;;;;;;;19.20;100.00;100527.88;5250174;28;20031;-68
2022/08/16 04:26:20;;;;;;;15.70;14.32;;;;;;;19.09;100.00;100528.44;5249763;28;20040;-67
2022/08/16 04:29:04;;;;;;;17.02;15.40;;;;;;;19.15;100.00;100527.66;5247586;28;20025;-68
2022/08/16 04:31:43;;;;;;;17.70;15.48;;;;;;;19.08;100.00;100525.97;5231165;28;20317;-68
2022/08/16 04:34:14;;;;;;;16.48;14.90;;;;;;;19.09;100.00;100525.78;5248207;28;20230;-67
2022/08/16 04:36:54;;;;;;;17.53;15.73;;;;;;;19.28;100.00;100528.75;5228111;28;20022;-67
2022/08/16 04:39:26;;;;;;;17.80;16.02;;;;;;;19.12;100.00;100530.69;5238963;28;20079;-67
2022/08/16 04:42:05;;;;;;;18.23;16.02;;;;;;;19.15;100.00;100530.31;5248544;28;20029;-67
2022/08/16 04:44:39;;;;;;;17.42;15.73;;;;;;;19.18;100.00;100527.25;5249655;28;20029;-68
2022/08/16 04:47:11;;;;;;;16.48;14.85;;;;;;;19.16;100.00;100531.13;5249483;28;20024;-67
2022/08/16 04:49:43;;;;;;;17.63;15.60;;;;;;;19.21;100.00;100536.69;5230971;28;20494;-68
2022/08/16 04:52:14;;;;;;;19.93;16.93;;;;;;;19.22;100.00;100540.16;5251801;28;20025;-68
2022/08/16 04:54:48;;;;;;;17.23;15.60;;;;;;;19.27;100.00;100535.06;5252256;28;20027;-67
2022/08/16 04:57:28;;;;;;;17.88;16.15;;;;;;;19.24;100.00;100538.94;5249411;28;20403;-67
2022/08/16 05:00:11;;;;;;;17.98;16.08;;;;;;;19.37;100.00;100538.22;5248168;28;20147;-67
2022/08/16 05:02:42;;;;;;;18.15;16.27;;;;;;;19.31;100.00;100547.78;5248753;28;20599;-67
2022/08/16 05:05:16;;;;;;;18.40;16.52;;;;;;;19.35;100.00;100543.72;5250802;28;20111;-68
2022/08/16 05:07:47;;;;;;;18.50;16.70;;;;;;;19.33;100.00;100544.94;5250484;28;20025;-67
2022/08/16 05:10:19;;;;;;;18.33;15.73;;;;;;;19.36;100.00;100542.72;5250355;28;20045;-67
2022/08/16 05:12:50;;;;;;;16.93;15.33;;;;;;;19.36;100.00;100552.53;5250950;28;20048;-67
2022/08/16 05:15:21;;;;;;;18.00;16.30;;;;;;;19.37;100.00;100554.16;5251145;28;20017;-67
2022/08/16 05:17:54;;;;;;;17.93;16.17;;;;;;;19.39;100.00;100552.94;5252028;28;20102;-67
2022/08/16 05:20:26;;;;;;;18.30;16.63;;;;;;;19.40;100.00;100551.94;5252990;28;20096;-67
2022/08/16 05:22:57;;;;;;;18.13;16.42;;;;;;;19.44;100.00;100555.84;5253952;28;20059;-67
2022/08/16 05:25:29;;;;;;;17.92;15.93;;;;;;;19.51;100.00;100558.53;5250497;28;20542;-67
2022/08/16 05:28:00;;;;;;;18.58;16.73;;;;;;;19.49;100.00;100563.22;5253661;28;20396;-67
2022/08/16 05:30:31;;;;;;;18.37;16.50;;;;;;;19.54;100.00;100567.94;5250525;28;20021;-67
2022/08/16 05:33:03;;;;;;;19.10;16.10;;;;;;;19.55;100.00;100566.94;5232293;28;20396;-67
2022/08/16 05:35:35;;;;;;;17.83;15.87;;;;;;;19.54;100.00;100563.44;5252504;28;20063;-67
2022/08/16 05:38:06;;;;;;;17.33;15.52;;;;;;;19.61;100.00;100569.63;5250365;28;20382;-66
2022/08/16 05:40:37;;;;;;;17.87;16.07;;;;;;;19.64;100.00;100574.56;5237755;28;20017;-67
2022/08/16 05:43:09;;;;;;;17.30;15.63;;;;;;;19.71;100.00;100571.97;5252735;28;20083;-67
2022/08/16 05:45:40;;;;;;;18.55;16.77;;;;;;;19.67;100.00;100578.69;5251166;28;20052;-67
2022/08/16 05:48:11;;;;;;;17.57;15.87;;;;;;;19.71;100.00;100579.13;5252917;28;20078;-67
2022/08/16 05:50:43;;;;;;;17.57;15.77;;;;;;;19.75;100.00;100577.72;5251797;28;20025;-67
2022/08/16 05:53:14;;;;;;;17.97;16.23;;;;;;;19.78;100.00;100579.97;5250590;28;20056;-67
2022/08/16 05:55:45;;;;;;;18.70;17.00;;;;;;;19.83;100.00;100582.84;5252272;28;20033;-66
2022/08/16 05:58:17;;;;;;;18.00;16.33;;;;;;;19.84;100.00;100580.00;5248081;28;20025;-67
2022/08/16 06:00:48;;;;;;;17.50;15.90;;;;;;;19.88;100.00;100578.56;5251858;28;20029;-67
2022/08/16 06:03:19;;;;;;;19.93;15.40;;;;;;;19.98;100.00;100583.53;5251190;28;20033;-67
2022/08/16 06:05:50;;;;;;;17.37;15.53;;;;;;;20.02;100.00;100594.59;5251359;28;20106;-67
2022/08/16 06:08:22;;;;;;;16.63;14.63;;;;;;;20.08;100.00;100594.63;5250724;28;20036;-67
2022/08/16 06:10:53;;;;;;;16.73;15.10;;;;;;;20.13;100.00;100600.16;5249401;28;20047;-68
2022/08/16 06:13:25;;;;;;;17.50;15.77;;;;;;;20.18;100.00;100595.06;5250373;28;20029;-67
2022/08/16 06:15:56;;;;;;;17.70;16.03;;;;;;;20.20;100.00;100586.09;5250193;28;20078;-68
2022/08/16 06:18:27;;;;;;;18.47;16.03;;;;;;;20.27;100.00;100600.22;5250967;28;20021;-68
2022/08/16 06:20:59;;;;;;;15.27;13.87;;;;;;;20.37;100.00;100598.00;5248071;28;20087;-69
2022/08/16 06:23:30;;;;;;;16.73;14.77;;;;;;;20.42;100.00;100598.22;5251023;28;20396;-67
2022/08/16 06:26:04;;;;;;;16.90;15.17;;;;;;;20.49;100.00;100604.41;5252087;28;20495;-67
2022/08/16 06:28:35;;;;;;;19.20;16.73;;;;;;;20.57;100.00;100611.38;5247281;28;20119;-68
2022/08/16 06:31:09;;;;;;;16.20;14.60;;;;;;;20.72;100.00;100608.53;5252403;28;20108;-67
2022/08/16 06:33:41;;;;;;;17.13;15.38;;;;;;;20.77;100.00;100606.94;5251271;28;20095;-68
2022/08/16 06:36:14;;;;;;;17.20;15.50;;;;;;;20.88;100.00;100605.50;5248607;28;20055;-69
2022/08/16 06:38:45;;;;;;;15.98;14.48;;;;;;;20.94;100.00;100610.00;5241741;28;20038;-69
2022/08/16 06:41:17;;;;;;;16.33;14.53;;;;;;;21.08;100.00;100608.19;5252037;28;20013;-69
2022/08/16 06:43:48;;;;;;;17.97;15.30;;;;;;;21.22;100.00;100617.00;5251308;28;20081;-67
2022/08/16 06:46:23;;;;;;;16.87;14.07;;;;;;;21.33;100.00;100613.75;5249170;28;20025;-67
2022/08/16 06:48:55;;;;;;;17.23;15.60;;;;;;;21.32;100.00;100607.53;5239403;28;20025;-68
2022/08/16 06:51:26;;;;;;;16.87;15.13;;;;;;;21.51;100.00;100613.09;5244042;28;20025;-67
2022/08/16 06:53:57;;;;;;;16.20;14.47;;;;;;;21.66;100.00;100612.84;5249166;28;20052;-68
2022/08/16 06:56:29;;;;;;;15.90;14.17;;;;;;;21.78;100.00;100620.03;5248366;28;20515;-68
2022/08/16 06:59:00;;;;;;;16.97;15.37;;;;;;;21.83;100.00;100614.06;5245942;28;20037;-68
2022/08/16 07:01:32;;;;;;;17.90;15.73;;;;;;;21.95;100.00;100620.38;5246579;28;20025;-68
2022/08/16 07:04:03;;;;;;;15.33;13.83;;;;;;;22.06;100.00;100622.38;5248085;28;20309;-68
2022/08/16 07:06:34;;;;;;;15.30;13.80;;;;;;;22.19;100.00;100624.19;5250776;28;20021;-67
2022/08/16 07:09:06;;;;;;;16.03;14.43;;;;;;;22.23;100.00;100617.41;5247955;28;20506;-67
2022/08/16 07:11:37;;;;;;;15.40;13.90;;;;;;;22.36;100.00;100615.72;5249114;28;20068;-67
2022/08/16 07:14:08;;;;;;;17.10;14.07;;;;;;;22.48;100.00;100624.69;5250711;28;20036;-67
2022/08/16 07:16:40;;;;;;;18.97;14.97;;;;;;;22.54;100.00;100632.69;5250055;28;20078;-67
2022/08/16 07:19:12;;;;;;;17.40;15.55;;;;;;;22.66;100.00;100635.47;5247883;28;20021;-67
2022/08/16 07:21:43;;;;;;;15.77;14.27;;;;;;;22.81;100.00;100637.84;5247458;28;20025;-67
2022/08/16 07:24:16;;;;;;;16.10;14.43;;;;;;;22.94;100.00;100636.97;5249113;28;20056;-67
2022/08/16 07:26:47;;;;;;;18.65;15.18;;;;;;;22.96;100.00;100626.91;5243267;28;20032;-68
2022/08/16 07:29:18;;;;;;;16.17;14.60;;;;;;;23.14;100.00;100642.16;5248939;28;20033;-67
2022/08/16 07:31:50;;;;;;;15.57;14.00;;;;;;;23.17;99.44;100644.41;5245376;28;20020;-67
2022/08/16 07:34:21;;;;;;;16.57;14.10;;;;;;;23.26;98.56;100635.06;5244390;28;20502;-68
2022/08/16 07:36:53;;;;;;;16.50;13.83;;;;;;;23.40;97.22;100636.59;5247772;28;20051;-69
2022/08/16 07:39:24;;;;;;;15.37;13.77;;;;;;;23.61;96.14;100640.72;5237456;28;20023;-68
2022/08/16 07:41:55;;;;;;;14.40;12.90;;;;;;;23.67;95.88;100634.50;5249064;28;20017;-68
2022/08/16 07:44:27;;;;;;;14.77;13.23;;;;;;;23.91;93.32;100642.72;5249099;28;20531;-68
2022/08/16 07:46:58;;;;;;;19.30;13.27;;;;;;;23.89;92.88;100660.81;5230977;28;20759;-68
2022/08/16 07:49:29;;;;;;;13.87;12.47;;;;;;;24.08;92.40;100650.94;5245991;28;20048;-68
2022/08/16 07:52:01;;;;;;;14.33;12.87;;;;;;;24.14;89.43;100647.38;5245987;28;20041;-69
2022/08/16 07:54:32;;;;;;;13.33;11.93;;;;;;;24.23;86.74;100646.84;5245415;28;20029;-69
2022/08/16 07:57:04;;;;;;;15.47;11.53;;;;;;;24.41;88.11;100659.41;5247688;28;20153;-68
2022/08/16 07:59:36;;;;;;;13.63;11.95;;;;;;;24.37;83.31;100652.84;5247123;28;20017;-68
2022/08/16 08:02:07;;;;;;;13.40;11.97;;;;;;;24.50;82.52;100663.41;5247687;28;20037;-68
2022/08/16 08:04:39;;;;;;;12.53;10.97;;;;;;;24.62;81.45;100647.38;5248723;28;20040;-68
2022/08/16 08:07:11;;;;;;;13.52;10.73;;;;;;;24.93;81.60;100657.03;5227858;28;20789;-68
2022/08/16 08:09:42;;;;;;;12.27;11.07;;;;;;;24.90;78.79;100662.88;5247293;28;20319;-68
2022/08/16 08:12:15;;;;;;;14.43;10.05;;;;;;;25.06;77.87;100660.56;5243957;28;20051;-68
2022/08/16 08:14:47;;;;;;;11.97;10.77;;;;;;;25.08;75.39;100667.34;5245436;28;20029;-69
2022/08/16 08:17:18;;;;;;;13.50;9.98;;;;;;;25.16;73.67;100668.91;5225000;28;20487;-69
2022/08/16 08:19:50;;;;;;;11.30;8.93;;;;;;;25.29;74.32;100671.34;5205725;28;20765;-69
2022/08/16 08:22:21;;;;;;;12.73;10.83;;;;;;;25.45;74.05;100670.66;5198451;28;20035;-69
2022/08/16 08:24:52;;;;;;;9.50;8.50;;;;;;;25.75;70.73;100671.59;5196642;28;20663;-68
2022/08/16 08:27:24;;;;;;;9.73;8.43;;;;;;;25.66;67.85;100671.13;5211878;28;20024;-68
2022/08/16 08:29:55;;;;;;;9.07;8.20;;;;;;;25.80;67.57;100672.56;5248784;28;20013;-68
2022/08/16 08:32:27;;;;;;;10.33;8.37;;;;;;;25.83;66.53;100677.44;5247564;28;20017;-68
2022/08/16 08:35:00;;;;;;;13.57;8.50;;;;;;;25.99;65.95;100673.25;5252096;28;20519;-68
2022/08/16 08:37:35;;;;;;;10.73;9.15;;;;;;;25.89;65.22;100676.50;5244243;28;20025;-68
2022/08/16 08:40:09;;;;;;;11.50;8.20;;;;;;;26.19;65.33;100672.84;5250876;28;20040;-68
2022/08/16 08:42:42;;;;;;;13.57;8.60;;;;;;;26.17;63.88;100675.75;5248997;28;20033;-68
2022/08/16 08:45:14;;;;;;;10.05;8.23;;;;;;;26.33;64.04;100676.91;5248657;28;20017;-68
2022/08/16 08:47:45;;;;;;;10.77;8.18;;;;;;;26.46;62.88;100678.50;5250818;28;20029;-68
2022/08/16 08:50:17;;;;;;;9.40;7.37;;;;;;;26.48;62.44;100678.25;5248945;28;20070;-68
2022/08/16 08:52:50;;;;;;;12.43;8.35;;;;;;;26.69;62.12;100685.66;5253823;28;20290;-68
2022/08/16 08:55:22;;;;;;;12.65;7.70;;;;;;;26.83;60.65;100681.63;5243787;28;20025;-68
2022/08/16 08:57:53;;;;;;;9.55;7.85;;;;;;;26.83;58.14;100684.31;5247045;28;20033;-68
2022/08/16 09:00:26;;;;;;;10.43;7.07;;;;;;;26.98;57.32;100681.06;5250233;28;20413;-68
2022/08/16 09:02:58;;;;;;;7.47;6.78;;;;;;;27.08;57.86;100689.28;5241690;28;20030;-68
2022/08/16 09:05:29;;;;;;;7.83;6.70;;;;;;;27.09;55.93;100690.94;5251595;28;20424;-69
2022/08/16 09:08:00;;;;;;;11.57;7.37;;;;;;;27.13;54.58;100680.53;5252565;28;20036;-69
2022/08/16 09:10:32;;;;;;;9.70;6.53;;;;;;;27.37;54.60;100690.06;5244171;28;20532;-69
2022/08/16 09:13:04;;;;;;;7.17;6.13;;;;;;;27.55;55.11;100689.00;5249849;28;20506;-69
2022/08/16 09:15:36;;;;;;;8.77;6.45;;;;;;;27.49;53.48;100689.16;5235937;28;20032;-69
2022/08/16 09:18:07;;;;;;;8.37;5.43;;;;;;;27.57;52.30;100691.44;5246610;28;20045;-69
2022/08/16 09:20:39;;;;;;;5.73;4.80;;;;;;;27.54;51.49;100705.38;5249976;28;20036;-69
2022/08/16 09:23:12;;;;;;;5.37;4.77;;;;;;;27.79;49.89;100705.00;5245564;28;20025;-69
2022/08/16 09:25:43;;;;;;;8.20;5.43;;;;;;;27.69;49.46;100700.22;5245155;28;20082;-70
2022/08/16 09:28:15;;;;;;;9.73;5.80;;;;;;;27.88;49.49;100703.47;5244983;28;20030;-69
2022/08/16 09:30:46;;;;;;;11.07;5.85;;;;;;;28.01;49.21;100697.75;5248701;28;20496;-69
2022/08/16 09:33:17;;;;;;;12.53;5.27;;;;;;;28.22;49.75;100693.44;5248508;28;20048;-69
2022/08/16 09:35:50;;;;;;;8.03;5.07;;;;;;;28.27;48.15;100696.19;5249221;28;20498;-69
2022/08/16 09:38:23;;;;;;;8.05;4.80;;;;;;;28.63;49.28;100703.91;5242274;28;20025;-69
2022/08/16 09:40:56;;;;;;;6.97;5.00;;;;;;;28.71;46.48;100698.84;5247638;28;20548;-70
2022/08/16 09:43:27;;;;;;;6.75;4.45;;;;;;;28.89;45.69;100696.88;5250958;28;20116;-70
2022/08/16 09:46:00;;;;;;;5.43;4.20;;;;;;;29.13;45.78;100692.81;5252932;28;20400;-70
2022/08/16 09:48:33;;;;;;;9.93;5.20;;;;;;;29.15;46.40;100696.06;5251631;28;20025;-70
2022/08/16 09:51:05;;;;;;;7.38;4.18;;;;;;;29.18;44.06;100684.78;5250103;28;20025;-69
2022/08/16 09:53:37;;;;;;;7.40;4.07;;;;;;;29.27;42.39;100698.59;5249723;28;20377;-69
2022/08/16 09:56:19;;;;;;;;;;;;;;;30.03;43.79;100695.59;5246634;28;20291;-69
2022/08/16 09:58:50;;;;;;;6.85;3.95;;;;;;;29.38;42.17;100699.47;5248118;28;20441;-69
2022/08/16 10:01:23;;;;;;;7.63;3.97;;;;;;;29.62;41.44;100705.34;5251174;28;20040;-69
2022/08/16 10:03:56;;;;;;;9.85;3.60;;;;;;;29.39;40.12;100693.81;5224882;28;20029;-67
2022/08/16 10:06:28;;;;;;;8.43;3.90;;;;;;;29.32;40.83;100699.47;5247484;28;20021;-69
2022/08/16 10:09:02;;;;;;;5.05;3.25;;;;;;;29.42;40.37;100700.59;5243942;28;20044;-69
2022/08/16 10:14:27;;;;;;;5.63;3.13;;;;;;;29.26;39.93;100699.66;5249545;28;20532;-68
2022/08/16 10:17:00;;;;;;;5.05;3.35;;;;;;;29.53;40.73;100708.50;5246865;28;20502;-68
2022/08/16 10:19:32;;;;;;;5.57;3.30;;;;;;;29.78;39.55;100699.78;5247455;28;20032;-68
2022/08/16 10:22:04;;;;;;;5.25;3.30;;;;;;;29.83;37.50;100700.88;5250547;28;20025;-68
2022/08/16 10:24:35;;;;;;;4.28;3.05;;;;;;;30.06;38.01;100698.56;5249105;28;20480;-68
2022/08/16 10:27:07;;;;;;;5.03;3.67;;;;;;;30.16;37.69;100702.41;5246820;28;20028;-69
2022/08/16 10:29:39;;;;;;;4.88;3.40;;;;;;;30.33;37.73;100707.63;5248430;28;20033;-69
2022/08/16 10:32:10;;;;;;;6.28;3.63;;;;;;;30.21;37.20;100700.56;5245337;28;20090;-68
2022/08/16 10:34:42;;;;;;;5.67;3.10;;;;;;;30.21;36.01;100697.06;5247182;28;20021;-68
2022/08/16 10:37:13;;;;;;;6.07;3.30;;;;;;;30.26;36.25;100697.06;5251717;28;20490;-68
2022/08/16 10:39:44;;;;;;;9.77;3.57;;;;;;;30.43;36.83;100704.97;5247831;28;20021;-71
2022/08/16 10:42:16;;;;;;;8.17;3.33;;;;;;;30.53;37.31;100708.53;5245627;28;20029;-69
2022/08/16 10:44:48;;;;;;;4.10;3.03;;;;;;;30.72;36.19;100710.69;5245562;28;20048;-69
2022/08/16 10:47:22;;;;;;;6.68;3.47;;;;;;;30.93;35.19;100703.47;5227365;28;20634;-70
2022/08/16 10:49:54;;;;;;;5.97;3.17;;;;;;;30.77;35.32;100703.47;5245024;28;20021;-70
2022/08/16 10:52:26;;;;;;;5.97;3.25;;;;;;;31.10;36.25;100714.84;5248061;28;20128;-69
2022/08/16 10:54:58;;;;;;;7.03;3.37;;;;;;;31.08;34.07;100700.78;5249295;28;20025;-69
2022/08/16 10:57:31;;;;;;;6.35;3.67;;;;;;;31.10;35.12;100714.84;5246047;28;20607;-70
2022/08/16 11:00:11;;;;;;;6.03;3.03;;;;;;;31.37;35.26;100711.91;5231648;28;20396;-69
2022/08/16 11:02:43;;;;;;;6.07;3.78;;;;;;;31.32;34.20;100721.91;5247680;28;20529;-70
2022/08/16 11:05:15;;;;;;;7.38;3.30;;;;;;;31.40;33.36;100718.66;5246251;28;20035;-70
2022/08/16 11:07:49;;;;;;;5.32;3.25;;;;;;;31.42;33.67;100721.91;5244919;28;20037;-70
2022/08/16 11:10:24;;;;;;;6.57;3.38;;;;;;;31.64;33.48;100721.63;5249761;28;20057;-69
2022/08/16 11:12:56;;;;;;;5.82;4.00;;;;;;;31.59;33.68;100724.31;5248714;28;20438;-69
2022/08/16 11:15:28;;;;;;;7.50;3.65;;;;;;;31.50;33.42;100715.94;5247743;28;20041;-69
2022/08/16 11:18:00;;;;;;;5.57;3.42;;;;;;;31.39;33.33;100723.25;5247541;28;20037;-69
2022/08/16 11:20:31;;;;;;;4.85;3.08;;;;;;;31.17;34.04;100723.50;5247038;28;20475;-69
2022/08/16 11:23:03;;;;;;;4.07;3.00;;;;;;;31.02;34.19;100723.50;5250428;28;20075;-70
2022/08/16 11:25:34;;;;;;;6.45;3.58;;;;;;;30.85;33.85;100717.53;5244890;28;20082;-69
2022/08/16 11:28:07;;;;;;;6.43;3.33;;;;;;;30.78;33.79;100721.28;5245299;28;20075;-69
2022/08/16 11:30:39;;;;;;;5.50;2.90;;;;;;;30.61;34.29;100725.28;5247491;28;20690;-69
2022/08/16 11:33:11;;;;;;;3.97;2.65;;;;;;;30.65;34.72;100732.63;5248617;28;20028;-69
2022/08/16 11:35:42;;;;;;;5.10;2.80;;;;;;;30.53;33.45;100732.84;5248948;28;20539;-69
2022/08/16 11:38:17;;;;;;;4.57;2.70;;;;;;;30.34;32.95;100742.50;5246029;28;20078;-69
2022/08/16 11:40:56;;;;;;;4.38;2.80;;;;;;;30.25;32.80;100742.19;5246929;28;20468;-69
2022/08/16 11:43:33;;;;;;;5.90;2.85;;;;;;;30.10;33.23;100746.69;5242983;28;20044;-70